Terminal Aerodrome Forecast
Issued by NWS Kansas City/Pleasant Hill, MO

Home | Current Version | Previous Version | Text Only | Print | Product List | Glossary On
Versions: 1 2 3 4 5 6 7 8 9 10 11 12 13
623
FTUS43 KEAX 172320
TAFMCI
TAF
KMCI 172320Z 1800/1824 28005KT P6SM SKC
     FM180600 16008KT P6SM FEW250
     FM181300 18020G30KT P6SM BKN250=

USA.gov is the U.S. government's official web portal to all federal, state and local government web resources and services.